Time;durP1;ratioP1;P1;durP2;ratioP2;P2;SDS_P1;SDS_P2;PMS_P1;PMS_P2;Temp;Humidity;BMP_temperature;BMP_pressure;BME280_temperature;BME280_humidity;BME280_pressure;Samples;Min_cycle;Max_cycle;Signal;HPM_P1;HPM_P2
2022/08/03 00:01:05;;;;;;;2.00;1.50;;;;;;;25.44;64.00;100800.13;5009547;28;20452;-72
2022/08/03 00:03:32;;;;;;;1.98;1.33;;;;;;;25.51;64.28;100802.63;5011096;28;20034;-72
2022/08/03 00:05:57;;;;;;;2.20;1.58;;;;;;;25.38;64.59;100799.91;5009836;28;20030;-71
2022/08/03 00:08:23;;;;;;;2.25;1.38;;;;;;;25.35;65.24;100800.81;5011853;28;20113;-71
2022/08/03 00:10:49;;;;;;;1.92;1.50;;;;;;;25.37;64.73;100798.38;5013074;28;20026;-72
2022/08/03 00:13:14;;;;;;;3.10;1.70;;;;;;;25.46;63.75;100800.44;5015008;28;20044;-72
2022/08/03 00:15:41;;;;;;;1.83;1.48;;;;;;;25.40;63.84;100793.97;5014355;28;20062;-71
2022/08/03 00:18:07;;;;;;;3.63;1.67;;;;;;;25.45;63.62;100793.38;5012822;28;20049;-71
2022/08/03 00:20:33;;;;;;;1.80;1.25;;;;;;;25.24;64.03;100792.16;5014839;28;20099;-71
2022/08/03 00:22:59;;;;;;;2.47;1.50;;;;;;;25.29;65.12;100796.34;5026275;28;20030;-72
2022/08/03 00:25:24;;;;;;;3.03;1.95;;;;;;;25.29;65.33;100796.34;5008708;28;20100;-73
2022/08/03 00:27:50;;;;;;;3.22;1.60;;;;;;;25.14;65.09;100800.84;5004067;28;20048;-71
2022/08/03 00:30:15;;;;;;;1.48;1.20;;;;;;;25.18;64.81;100796.75;5014913;28;20038;-71
2022/08/03 00:32:41;;;;;;;2.85;1.73;;;;;;;25.12;65.24;100786.75;5014457;28;20040;-72
2022/08/03 00:35:07;;;;;;;4.25;1.63;;;;;;;25.00;65.13;100780.09;5013296;28;20080;-71
2022/08/03 00:37:32;;;;;;;2.15;1.58;;;;;;;24.98;66.45;100788.81;5013276;28;20124;-72
2022/08/03 00:39:58;;;;;;;2.25;1.50;;;;;;;24.85;66.31;100795.63;5013774;28;20080;-72
2022/08/03 00:42:23;;;;;;;2.47;1.40;;;;;;;24.87;65.70;100796.69;5007626;28;20479;-72
2022/08/03 00:44:49;;;;;;;3.72;1.65;;;;;;;24.99;65.27;100786.81;5010598;28;20028;-73
2022/08/03 00:47:14;;;;;;;2.55;1.65;;;;;;;25.00;63.84;100783.63;5014246;28;20033;-72
2022/08/03 00:49:41;;;;;;;2.50;1.70;;;;;;;25.04;63.91;100783.50;5009651;28;20050;-72
2022/08/03 00:52:10;;;;;;;2.08;1.48;;;;;;;24.97;63.41;100790.03;5026030;28;20030;-72
2022/08/03 00:54:39;;;;;;;1.63;1.45;;;;;;;24.99;63.94;100782.06;5011989;28;20113;-73
2022/08/03 00:57:05;;;;;;;2.13;1.45;;;;;;;25.09;64.15;100785.66;5012942;28;20447;-72
2022/08/03 00:59:31;;;;;;;2.63;1.77;;;;;;;25.20;63.37;100783.28;5011070;28;20025;-72
2022/08/03 01:01:57;;;;;;;2.50;1.50;;;;;;;25.20;64.31;100782.50;5014368;28;20038;-71
2022/08/03 01:04:22;;;;;;;3.40;1.77;;;;;;;25.17;64.34;100777.88;5012523;28;20026;-71
2022/08/03 01:06:56;;;;;;;2.00;1.77;;;;;;;25.09;64.22;100773.88;5013652;28;20048;-72
2022/08/03 01:09:44;;;;;;;2.47;1.80;;;;;;;25.04;64.74;100780.72;5006141;28;20045;-71
2022/08/03 01:12:24;;;;;;;1.65;1.42;;;;;;;24.96;63.72;100782.97;5013698;28;20497;-73
2022/08/03 01:15:07;;;;;;;2.05;1.33;;;;;;;24.92;64.48;100781.56;5013126;28;20061;-71
2022/08/03 01:17:42;;;;;;;2.85;1.73;;;;;;;24.64;64.88;100777.06;5013945;28;20061;-71
2022/08/03 01:20:10;;;;;;;1.55;1.40;;;;;;;24.68;65.37;100786.72;5005281;28;20041;-73
2022/08/03 01:22:58;;;;;;;2.10;1.50;;;;;;;24.71;65.92;100776.78;5011561;28;20097;-71
2022/08/03 01:25:35;;;;;;;2.20;1.45;;;;;;;24.64;66.39;100772.28;5011487;28;20517;-71
2022/08/03 01:28:24;;;;;;;1.55;1.45;;;;;;;24.65;66.74;100778.59;5013880;28;20040;-72
2022/08/03 01:30:55;;;;;;;6.72;1.80;;;;;;;24.64;65.94;100777.81;5012277;28;20041;-71
2022/08/03 01:33:34;;;;;;;1.85;1.52;;;;;;;24.56;66.97;100776.53;5004429;28;20061;-72
2022/08/03 01:36:04;;;;;;;2.30;1.67;;;;;;;24.44;68.13;100782.09;4997779;28;20084;-71
2022/08/03 01:38:42;;;;;;;1.58;1.48;;;;;;;24.32;69.36;100775.41;4997093;28;20034;-71
2022/08/03 01:41:12;;;;;;;2.45;1.63;;;;;;;24.19;70.32;100769.19;5012152;28;20072;-71
2022/08/03 01:43:41;;;;;;;2.47;1.70;;;;;;;24.13;70.64;100766.22;5013756;28;20029;-74
2022/08/03 01:46:09;;;;;;;3.22;1.70;;;;;;;24.10;70.90;100771.81;5011157;28;20033;-71
2022/08/03 01:48:41;;;;;;;5.22;2.10;;;;;;;24.02;71.10;100762.28;5013839;28;20033;-71
2022/08/03 01:51:09;;;;;;;2.15;1.42;;;;;;;24.00;70.23;100761.94;5013370;28;20029;-71
2022/08/03 01:53:37;;;;;;;2.60;1.65;;;;;;;24.04;70.03;100760.59;5009183;28;20060;-71
2022/08/03 01:56:04;;;;;;;2.67;1.77;;;;;;;24.20;67.79;100762.44;5007647;28;20038;-71
2022/08/03 01:58:33;;;;;;;1.88;1.50;;;;;;;24.19;68.12;100760.91;5013351;28;20034;-71
2022/08/03 02:01:01;;;;;;;2.05;1.60;;;;;;;24.15;69.06;100760.25;5013179;28;20036;-71
2022/08/03 02:03:28;;;;;;;3.90;2.00;;;;;;;24.13;69.47;100757.19;5010921;28;20499;-76
2022/08/03 02:05:56;;;;;;;2.50;1.63;;;;;;;24.13;69.53;100765.44;5012078;28;20029;-72
2022/08/03 02:08:23;;;;;;;1.75;1.38;;;;;;;23.97;70.61;100771.06;5012937;28;20402;-73
2022/08/03 02:10:50;;;;;;;2.03;1.67;;;;;;;23.84;71.54;100759.31;5012977;28;20092;-71
2022/08/03 02:13:18;;;;;;;2.47;2.10;;;;;;;23.84;71.43;100762.84;5002759;28;20366;-71
2022/08/03 02:15:45;;;;;;;2.70;1.88;;;;;;;23.82;71.77;100756.22;5011692;28;20053;-71
2022/08/03 02:18:12;;;;;;;4.82;1.92;;;;;;;23.86;71.57;100756.88;5012741;28;20104;-70
2022/08/03 02:20:41;;;;;;;3.08;1.95;;;;;;;23.81;71.23;100757.44;5010866;28;20037;-72
2022/08/03 02:23:07;;;;;;;2.70;1.70;;;;;;;23.83;71.02;100755.00;5006976;28;20030;-72
2022/08/03 02:25:42;;;;;;;1.98;1.65;;;;;;;23.79;71.13;100755.13;5007977;28;20038;-71
2022/08/03 02:28:15;;;;;;;4.47;1.75;;;;;;;23.78;71.91;100750.06;5009728;28;20038;-71
2022/08/03 02:30:44;;;;;;;2.13;1.48;;;;;;;23.77;71.72;100748.53;5010173;28;20037;-74
2022/08/03 02:33:16;;;;;;;2.42;2.13;;;;;;;23.71;70.78;100747.56;5026151;22;20089;-69
2022/08/03 02:35:42;;;;;;;3.75;2.30;;;;;;;23.66;70.64;100745.34;5012323;28;20068;-68
2022/08/03 02:38:12;;;;;;;2.00;1.63;;;;;;;23.65;71.49;100750.09;5010078;28;20503;-69
2022/08/03 02:40:39;;;;;;;2.15;1.73;;;;;;;23.65;71.43;100744.59;5009666;28;20038;-69
2022/08/03 02:43:10;;;;;;;2.25;1.75;;;;;;;23.61;71.74;100743.16;5010230;28;20041;-69
2022/08/03 02:45:42;;;;;;;2.97;1.80;;;;;;;23.55;72.36;100733.91;5003225;28;20048;-69
2022/08/03 02:48:10;;;;;;;2.22;1.92;;;;;;;23.52;72.43;100740.31;5004289;28;20319;-69
2022/08/03 02:50:36;;;;;;;2.95;2.00;;;;;;;23.57;72.43;100748.00;5003268;28;20018;-68
2022/08/03 02:53:03;;;;;;;4.38;2.00;;;;;;;23.50;73.29;100746.22;5000110;28;20383;-69
2022/08/03 02:55:31;;;;;;;3.30;1.70;;;;;;;23.43;73.61;100743.72;5008561;28;20038;-69
2022/08/03 02:57:58;;;;;;;3.38;2.00;;;;;;;23.43;73.00;100742.94;4999563;28;20053;-69
2022/08/03 03:00:24;;;;;;;2.83;1.75;;;;;;;23.51;72.84;100744.25;5012031;28;20051;-69
2022/08/03 03:02:51;;;;;;;1.73;1.63;;;;;;;23.50;72.58;100745.47;5016937;28;20034;-69
2022/08/03 03:05:17;;;;;;;2.00;1.67;;;;;;;23.49;72.35;100739.19;5008292;28;20490;-69
2022/08/03 03:07:45;;;;;;;3.60;1.80;;;;;;;23.46;73.45;100742.81;5009263;28;20045;-69
2022/08/03 03:10:11;;;;;;;3.35;2.08;;;;;;;23.28;72.45;100742.59;5003192;28;20030;-69
2022/08/03 03:12:37;;;;;;;2.88;2.00;;;;;;;23.33;73.10;100738.53;5001818;28;20021;-69
2022/08/03 03:15:06;;;;;;;3.08;2.28;;;;;;;23.01;73.18;100734.75;4995110;28;20440;-68
2022/08/03 03:17:35;;;;;;;3.00;2.17;;;;;;;23.15;73.29;100737.06;5004819;28;20393;-69
2022/08/03 03:20:02;;;;;;;4.20;1.77;;;;;;;23.27;73.04;100739.06;5003478;28;20425;-69
2022/08/03 03:22:29;;;;;;;3.13;2.42;;;;;;;23.29;73.49;100741.34;5003454;28;20387;-69
2022/08/03 03:24:55;;;;;;;2.08;1.75;;;;;;;23.29;73.42;100744.88;5009348;28;20303;-69
2022/08/03 03:27:21;;;;;;;2.28;1.83;;;;;;;23.28;73.43;100746.09;5004323;28;20533;-69
2022/08/03 03:29:48;;;;;;;3.60;2.28;;;;;;;23.30;73.04;100746.44;5011974;28;20046;-68
2022/08/03 03:32:13;;;;;;;2.33;1.98;;;;;;;23.28;73.25;100742.59;5006442;28;20045;-69
2022/08/03 03:34:40;;;;;;;3.38;2.03;;;;;;;23.23;72.49;100746.63;5002367;28;20033;-68
2022/08/03 03:37:05;;;;;;;3.40;1.90;;;;;;;23.26;72.84;100753.25;5001050;28;20034;-68
2022/08/03 03:39:31;;;;;;;3.75;2.03;;;;;;;23.14;72.80;100748.50;5001968;28;20168;-68
2022/08/03 03:41:57;;;;;;;3.75;2.38;;;;;;;23.25;72.21;100746.19;5002983;28;20138;-68
2022/08/03 03:44:27;;;;;;;5.72;2.40;;;;;;;23.12;72.70;100740.69;5015427;28;20041;-68
2022/08/03 03:46:54;;;;;;;3.25;1.95;;;;;;;23.04;73.28;100733.09;4994870;28;20064;-68
2022/08/03 03:49:20;;;;;;;4.38;2.20;;;;;;;23.15;72.66;100734.31;5020471;28;20100;-68
2022/08/03 03:51:46;;;;;;;2.85;2.00;;;;;;;23.19;72.57;100734.97;4998533;28;20081;-69
2022/08/03 03:54:11;;;;;;;3.33;2.30;;;;;;;23.19;72.54;100728.69;5000455;28;20037;-68
2022/08/03 03:56:37;;;;;;;2.03;1.77;;;;;;;23.24;72.63;100730.91;4998870;28;20390;-68
2022/08/03 03:59:02;;;;;;;3.47;1.88;;;;;;;23.22;73.08;100734.13;5006719;28;20030;-68
2022/08/03 04:01:29;;;;;;;2.72;1.90;;;;;;;23.21;73.09;100751.03;5005287;28;20041;-68
2022/08/03 04:03:54;;;;;;;4.65;2.65;;;;;;;23.27;72.80;100741.81;4996725;28;20499;-68
2022/08/03 04:11:51;;;;;;;5.03;2.45;;;;;;;23.21;73.28;100742.78;5006233;28;20087;-68
2022/08/03 04:14:25;;;;;;;3.13;2.10;;;;;;;23.21;74.27;100742.78;5007222;28;20050;-68
2022/08/03 04:16:56;;;;;;;4.25;2.33;;;;;;;23.23;74.40;100743.88;5009383;28;20108;-67
2022/08/03 04:19:33;;;;;;;3.85;2.30;;;;;;;23.28;74.06;100743.34;4992262;28;20042;-68
2022/08/03 04:22:04;;;;;;;2.45;2.08;;;;;;;23.21;74.20;100749.06;4989746;28;20030;-68
2022/08/03 04:24:34;;;;;;;4.20;2.53;;;;;;;23.28;72.62;100734.34;4985193;28;20363;-68
2022/08/03 04:27:03;;;;;;;3.13;1.98;;;;;;;23.22;73.72;100739.63;4991008;28;20053;-68
2022/08/03 04:29:33;;;;;;;3.33;2.40;;;;;;;23.26;73.87;100745.00;4977953;28;20114;-68
2022/08/03 04:32:00;;;;;;;4.85;2.35;;;;;;;23.38;73.20;100741.53;4989642;28;20089;-68
2022/08/03 04:34:26;;;;;;;2.92;2.10;;;;;;;23.24;73.11;100745.44;4996022;28;20034;-67
2022/08/03 04:36:58;;;;;;;3.60;2.00;;;;;;;23.22;73.73;100741.59;4990811;28;20026;-67
2022/08/03 04:39:26;;;;;;;2.33;2.10;;;;;;;23.35;73.32;100747.88;4989973;28;20061;-68
2022/08/03 04:41:54;;;;;;;3.20;2.20;;;;;;;23.38;73.21;100746.25;4990622;28;20038;-68
2022/08/03 04:44:22;;;;;;;3.30;2.38;;;;;;;23.49;72.79;100749.44;4990151;28;20498;-68
2022/08/03 04:46:48;;;;;;;5.10;2.60;;;;;;;23.43;73.96;100746.47;4990619;28;20150;-68
2022/08/03 04:49:15;;;;;;;3.83;2.40;;;;;;;23.34;73.10;100740.09;4989952;28;20161;-68
2022/08/03 04:51:41;;;;;;;3.45;2.45;;;;;;;23.41;73.99;100748.88;4990729;28;20026;-68
2022/08/03 04:54:11;;;;;;;5.35;2.15;;;;;;;23.42;73.02;100749.66;4989617;28;20414;-68
2022/08/03 04:56:40;;;;;;;2.50;2.13;;;;;;;23.49;72.85;100750.19;4989676;28;20034;-68
2022/08/03 04:59:06;;;;;;;2.75;2.00;;;;;;;23.29;73.66;100747.63;4992678;28;20029;-68
2022/08/03 05:01:31;;;;;;;3.75;2.40;;;;;;;23.29;73.84;100749.59;5003643;28;20453;-68
2022/08/03 05:03:57;;;;;;;3.05;2.10;;;;;;;23.37;74.05;100750.19;4993714;28;20041;-69
2022/08/03 05:06:23;;;;;;;2.30;1.85;;;;;;;23.44;74.11;100758.22;4994951;28;20026;-68
2022/08/03 05:08:48;;;;;;;3.97;2.45;;;;;;;23.42;74.00;100757.91;4990984;28;20084;-68
2022/08/03 05:11:15;;;;;;;3.17;2.47;;;;;;;23.28;75.07;100757.09;4993880;28;20133;-69
2022/08/03 05:14:01;;;;;;;2.90;2.30;;;;;;;23.34;76.30;100751.06;4994066;28;20030;-68
2022/08/03 05:16:26;;;;;;;4.07;2.50;;;;;;;23.32;76.56;100759.78;4936736;29;20044;-68
2022/08/03 05:18:52;;;;;;;3.10;2.20;;;;;;;23.44;74.69;100758.22;4936726;29;20054;-68
2022/08/03 05:21:17;;;;;;;4.97;2.50;;;;;;;23.42;74.95;100755.16;4947083;29;20042;-68
2022/08/03 05:23:43;;;;;;;3.45;2.40;;;;;;;23.44;73.74;100758.22;4932693;29;20122;-68
2022/08/03 05:26:10;;;;;;;6.22;2.33;;;;;;;23.43;74.33;100759.44;4936664;29;20043;-68
2022/08/03 05:28:36;;;;;;;2.78;2.22;;;;;;;23.47;73.47;100769.13;4945234;29;20046;-68
2022/08/03 05:31:02;;;;;;;3.78;2.55;;;;;;;23.56;75.12;100765.69;4936583;29;20082;-68
2022/08/03 05:33:28;;;;;;;4.05;2.40;;;;;;;23.60;74.32;100758.88;4937488;29;20047;-68
2022/08/03 05:35:53;;;;;;;3.47;2.13;;;;;;;23.86;73.12;100770.63;4950154;29;20387;-68
2022/08/03 05:38:19;;;;;;;2.50;1.85;;;;;;;23.99;71.74;100768.63;4931351;29;20055;-68
2022/08/03 05:40:44;;;;;;;2.95;1.90;;;;;;;24.15;71.21;100768.53;4944146;29;20415;-68
2022/08/03 05:43:10;;;;;;;2.80;1.75;;;;;;;24.51;70.81;100768.06;4948387;29;20075;-68
2022/08/03 05:45:37;;;;;;;2.67;2.05;;;;;;;24.59;69.22;100766.59;4948375;29;20034;-68
2022/08/03 05:48:04;;;;;;;3.35;2.08;;;;;;;24.72;68.52;100770.88;4938224;29;20059;-68
2022/08/03 05:50:30;;;;;;;2.80;2.15;;;;;;;24.77;68.08;100773.06;4935309;29;20043;-68
2022/08/03 05:52:58;;;;;;;2.63;2.15;;;;;;;24.78;68.81;100773.81;4942324;28;20051;-68
2022/08/03 05:55:24;;;;;;;2.53;2.10;;;;;;;24.97;67.61;100772.72;4991818;28;20072;-68
2022/08/03 05:57:49;;;;;;;3.13;2.28;;;;;;;25.00;67.76;100777.34;4990107;28;20497;-68
2022/08/03 06:00:16;;;;;;;3.45;2.13;;;;;;;25.27;66.77;100773.94;4992628;28;20030;-69
2022/08/03 06:02:41;;;;;;;5.47;2.15;;;;;;;25.51;68.08;100775.03;4992311;28;20026;-69
2022/08/03 06:05:08;;;;;;;3.58;2.15;;;;;;;25.63;65.84;100763.09;4993014;28;20125;-69
2022/08/03 06:07:34;;;;;;;3.47;2.08;;;;;;;25.85;66.12;100769.31;4990233;28;20121;-69
2022/08/03 06:10:01;;;;;;;4.03;2.70;;;;;;;25.97;64.33;100768.41;4983869;28;20125;-69
2022/08/03 06:12:26;;;;;;;2.47;1.70;;;;;;;26.00;64.48;100773.00;4991655;28;20038;-69
2022/08/03 06:14:52;;;;;;;3.53;2.10;;;;;;;26.21;63.05;100772.16;4992402;28;20033;-70
2022/08/03 06:17:17;;;;;;;2.17;1.77;;;;;;;26.48;62.28;100774.19;4990907;28;20050;-69
2022/08/03 06:19:43;;;;;;;2.58;1.60;;;;;;;26.42;66.45;100774.00;4989111;28;20034;-69
2022/08/03 06:22:08;;;;;;;3.15;2.05;;;;;;;26.58;63.73;100773.69;4991721;28;20034;-69
2022/08/03 06:24:34;;;;;;;1.80;1.70;;;;;;;26.55;63.96;100769.13;4991478;28;20031;-69
2022/08/03 06:26:59;;;;;;;3.80;1.60;;;;;;;26.47;64.63;100772.63;4991763;28;20072;-69
2022/08/03 06:29:25;;;;;;;2.75;1.70;;;;;;;26.69;63.13;100773.25;4986342;28;20109;-69
2022/08/03 06:31:51;;;;;;;3.28;1.85;;;;;;;26.66;61.43;100769.41;4989680;28;20646;-69
2022/08/03 06:34:16;;;;;;;2.10;1.50;;;;;;;26.99;61.26;100777.84;4987043;28;20490;-69
2022/08/03 06:36:42;;;;;;;2.20;1.67;;;;;;;26.85;59.67;100764.63;4985043;28;20478;-69
2022/08/03 06:39:07;;;;;;;2.83;1.85;;;;;;;26.58;61.18;100775.69;4990039;28;20042;-69
2022/08/03 06:41:33;;;;;;;4.18;1.70;;;;;;;26.28;61.56;100780.16;4988216;28;20049;-69
2022/08/03 06:43:59;;;;;;;2.35;1.58;;;;;;;26.52;62.97;100777.53;4992105;28;20026;-69
2022/08/03 06:46:24;;;;;;;1.80;1.23;;;;;;;26.92;60.77;100782.91;4990678;28;20029;-69
2022/08/03 06:48:50;;;;;;;3.13;1.35;;;;;;;26.83;59.77;100778.16;4986624;28;20034;-69
2022/08/03 06:51:15;;;;;;;2.45;1.30;;;;;;;26.81;60.71;100785.41;4990957;28;20065;-69
2022/08/03 06:53:41;;;;;;;3.88;1.63;;;;;;;26.94;61.34;100777.69;4990283;28;20039;-69
2022/08/03 06:56:07;;;;;;;1.73;1.42;;;;;;;27.14;60.36;100781.47;4991662;28;20026;-69
2022/08/03 06:58:33;;;;;;;2.47;1.70;;;;;;;27.39;60.52;100781.13;4990418;28;20044;-69
2022/08/03 07:00:58;;;;;;;2.35;1.60;;;;;;;27.82;59.04;100784.63;4991479;28;20034;-69
2022/08/03 07:03:24;;;;;;;2.67;1.65;;;;;;;27.86;58.55;100791.53;4990256;28;20030;-69
2022/08/03 07:05:50;;;;;;;2.33;1.67;;;;;;;28.04;56.38;100779.59;4990287;28;20022;-69
2022/08/03 07:08:16;;;;;;;2.15;1.45;;;;;;;28.29;60.04;100793.75;4985583;28;20039;-69
2022/08/03 07:10:42;;;;;;;2.10;1.63;;;;;;;28.36;55.54;100787.06;4985355;28;20033;-69
2022/08/03 07:13:08;;;;;;;1.55;1.42;;;;;;;28.52;57.06;100792.94;4986717;28;20034;-69
2022/08/03 07:15:34;;;;;;;1.85;1.50;;;;;;;28.32;55.45;100790.00;4989467;28;20475;-69
2022/08/03 07:18:00;;;;;;;1.65;1.35;;;;;;;27.94;55.59;100787.19;4982454;28;20043;-69
2022/08/03 07:20:25;;;;;;;1.90;1.60;;;;;;;28.21;56.92;100794.56;4988327;28;20033;-69
2022/08/03 07:22:51;;;;;;;2.22;1.90;;;;;;;27.95;57.30;100788.72;4992472;28;20042;-69
2022/08/03 07:25:16;;;;;;;2.53;1.70;;;;;;;28.43;56.43;100786.72;4991392;28;20123;-69
2022/08/03 07:27:47;;;;;;;2.03;1.45;;;;;;;28.73;58.26;100791.09;4989756;28;20035;-69
2022/08/03 07:30:14;;;;;;;2.10;1.70;;;;;;;28.87;55.94;100795.91;4990216;28;20045;-69
2022/08/03 07:32:39;;;;;;;2.10;1.45;;;;;;;28.95;54.05;100794.28;4991659;28;20364;-69
2022/08/03 07:35:06;;;;;;;2.03;1.50;;;;;;;29.12;55.43;100800.09;4984318;28;20041;-69
2022/08/03 07:37:32;;;;;;;1.60;1.40;;;;;;;29.48;55.49;100801.75;4991701;28;20042;-69
2022/08/03 07:40:02;;;;;;;2.28;1.48;;;;;;;29.94;54.56;100808.28;4985339;28;20036;-69
2022/08/03 07:42:28;;;;;;;1.85;1.40;;;;;;;30.13;53.50;100813.09;4987228;28;20045;-69
2022/08/03 07:44:54;;;;;;;1.88;1.60;;;;;;;30.38;54.18;100814.44;4989243;28;20034;-69
2022/08/03 07:47:23;;;;;;;1.38;1.25;;;;;;;30.32;51.82;100821.94;4985766;28;20563;-69
2022/08/03 07:49:49;;;;;;;1.40;1.08;;;;;;;30.57;51.64;100810.09;4986610;28;20054;-70
2022/08/03 07:54:59;;;;;;;1.95;1.60;;;;;;;30.75;50.43;100811.81;4990930;28;20042;-70
2022/08/03 07:57:28;;;;;;;2.97;1.45;;;;;;;30.94;51.91;100813.03;4999157;28;20030;-70
2022/08/03 07:59:54;;;;;;;1.52;1.38;;;;;;;30.78;50.47;100806.03;5000305;28;20820;-70
2022/08/03 08:02:20;;;;;;;1.75;1.48;;;;;;;31.07;50.87;100802.28;5011511;28;20046;-69
2022/08/03 08:04:45;;;;;;;2.95;1.40;;;;;;;31.36;50.44;100810.38;4991774;28;20113;-70
2022/08/03 08:07:11;;;;;;;2.58;1.33;;;;;;;31.63;49.67;100804.28;4991895;28;20078;-69
2022/08/03 08:09:37;;;;;;;1.85;1.08;;;;;;;31.92;49.88;100803.97;4990350;28;20041;-70
2022/08/03 08:12:03;;;;;;;2.67;1.30;;;;;;;32.09;49.01;100808.91;4991434;28;20034;-70
2022/08/03 08:14:28;;;;;;;1.98;1.30;;;;;;;32.30;47.89;100810.25;4991041;28;20026;-69
2022/08/03 08:16:54;;;;;;;1.10;1.00;;;;;;;32.47;47.32;100797.16;4988153;28;20581;-70
2022/08/03 08:19:20;;;;;;;1.50;1.02;;;;;;;32.55;46.51;100798.19;4988373;28;20031;-70
2022/08/03 08:21:45;;;;;;;2.28;1.05;;;;;;;32.67;47.47;100797.72;4990984;28;20026;-70
2022/08/03 08:24:11;;;;;;;1.25;0.98;;;;;;;32.87;47.20;100796.00;4990610;28;20125;-69
2022/08/03 08:26:36;;;;;;;2.75;1.02;;;;;;;32.99;46.11;100797.53;4988664;28;20026;-70
2022/08/03 08:29:03;;;;;;;2.85;1.20;;;;;;;33.07;46.66;100801.34;4984787;28;20323;-70
2022/08/03 08:31:29;;;;;;;0.93;0.90;;;;;;;33.18;47.00;100799.31;4987286;28;20030;-70
2022/08/03 08:33:54;;;;;;;1.58;0.98;;;;;;;33.25;46.59;100804.44;4991266;28;20506;-70
2022/08/03 08:36:20;;;;;;;2.92;0.73;;;;;;;33.30;47.26;100798.06;4991785;28;20506;-70
2022/08/03 08:38:46;;;;;;;1.75;0.70;;;;;;;33.31;45.79;100801.63;4994130;28;20061;-70
2022/08/03 08:41:13;;;;;;;0.60;0.60;;;;;;;33.37;45.24;100800.34;4994678;28;20034;-69
2022/08/03 08:43:40;;;;;;;0.85;0.70;;;;;;;33.45;45.46;100801.34;4994919;28;20056;-70
2022/08/03 08:46:07;;;;;;;0.80;0.70;;;;;;;33.50;45.17;100809.00;4993683;28;20043;-70
2022/08/03 08:48:37;;;;;;;0.90;0.70;;;;;;;33.59;44.46;100805.94;4993799;28;20360;-70
2022/08/03 08:51:04;;;;;;;1.00;0.90;;;;;;;33.63;44.74;100806.44;4994420;28;20046;-70
2022/08/03 08:53:31;;;;;;;1.35;1.00;;;;;;;33.81;45.13;100798.78;4992919;28;20458;-70
2022/08/03 08:55:59;;;;;;;1.60;0.88;;;;;;;33.98;43.02;100802.31;4991463;28;20104;-69
2022/08/03 08:58:26;;;;;;;2.25;0.50;;;;;;;34.04;43.20;100795.44;4991411;28;20089;-70
2022/08/03 09:00:52;;;;;;;1.95;0.60;;;;;;;34.23;42.83;100806.81;4992060;28;20026;-70
2022/08/03 09:03:17;;;;;;;0.55;0.47;;;;;;;34.37;43.01;100805.72;4993902;28;20030;-70
2022/08/03 09:05:44;;;;;;;0.70;0.55;;;;;;;34.39;43.16;100809.53;4991366;28;20479;-70
2022/08/03 09:08:09;;;;;;;0.60;0.52;;;;;;;34.54;42.55;100807.19;4992250;28;20042;-70
2022/08/03 09:10:35;;;;;;;2.25;0.68;;;;;;;34.64;42.82;100812.47;4992867;28;20119;-70
2022/08/03 09:13:00;;;;;;;0.60;0.50;;;;;;;34.62;41.70;100804.59;4990203;28;20023;-70
2022/08/03 09:15:30;;;;;;;0.85;0.52;;;;;;;34.54;41.16;100810.00;4991696;28;20038;-70
2022/08/03 09:17:58;;;;;;;0.70;0.50;;;;;;;34.63;41.91;100808.91;4993826;28;20038;-70
2022/08/03 09:20:26;;;;;;;1.10;0.65;;;;;;;34.75;41.86;100806.84;4993268;28;20046;-70
2022/08/03 09:23:03;;;;;;;0.50;0.50;;;;;;;34.84;41.26;100798.88;4993628;28;20058;-70
2022/08/03 09:25:42;;;;;;;2.08;0.55;;;;;;;34.87;42.03;100800.63;4993479;28;20113;-69
2022/08/03 09:28:17;;;;;;;1.05;0.63;;;;;;;35.05;41.41;100808.44;4991907;28;20052;-67
2022/08/03 09:30:56;;;;;;;0.52;0.50;;;;;;;34.66;41.79;100802.28;4993240;28;20034;-67
2022/08/03 09:33:21;;;;;;;0.70;0.45;;;;;;;34.75;42.78;100799.16;4993174;28;20084;-67
2022/08/03 09:35:48;;;;;;;0.85;0.50;;;;;;;34.90;42.28;100798.84;4995002;28;20034;-67
2022/08/03 09:38:16;;;;;;;1.73;0.60;;;;;;;34.91;42.31;100801.09;4992272;28;20042;-67
2022/08/03 09:40:42;;;;;;;0.50;0.40;;;;;;;34.92;43.04;100799.06;4992778;28;20026;-67
2022/08/03 09:43:09;;;;;;;1.45;0.68;;;;;;;34.90;42.55;100805.19;5006296;28;20453;-67
2022/08/03 09:45:36;;;;;;;1.05;0.45;;;;;;;34.89;42.03;100805.69;4992720;28;20026;-67
2022/08/03 09:48:20;;;;;;;0.50;0.40;;;;;;;35.01;42.59;100802.34;4989550;28;20030;-67
2022/08/03 09:50:54;;;;;;;1.25;0.50;;;;;;;35.18;41.81;100802.97;4986419;28;20030;-69
2022/08/03 09:53:20;;;;;;;0.70;0.30;;;;;;;35.21;42.14;100801.16;4988081;28;20030;-69
2022/08/03 09:55:52;;;;;;;0.50;0.45;;;;;;;35.51;41.69;100793.53;4992496;28;20022;-70
2022/08/03 09:58:20;;;;;;;1.92;0.73;;;;;;;35.79;41.44;100796.78;5002892;28;20065;-70
2022/08/03 10:00:53;;;;;;;0.90;0.50;;;;;;;36.01;41.13;100790.97;5004776;28;20076;-69
2022/08/03 10:03:20;;;;;;;1.05;0.60;;;;;;;36.20;40.63;100799.41;5005143;28;20061;-70
2022/08/03 10:05:45;;;;;;;2.78;0.75;;;;;;;36.20;41.06;100802.97;4989949;28;20057;-67
2022/08/03 10:08:14;;;;;;;0.40;0.32;;;;;;;36.24;40.95;100794.25;4990850;28;20074;-67
2022/08/03 10:10:45;;;;;;;1.05;0.45;;;;;;;36.33;39.96;100795.94;4988787;28;20038;-67
2022/08/03 10:13:13;;;;;;;1.05;0.68;;;;;;;36.42;39.95;100799.16;4989869;28;20045;-67
2022/08/03 10:15:41;;;;;;;1.23;0.55;;;;;;;36.52;39.75;100793.91;4989268;28;20054;-67
2022/08/03 10:18:07;;;;;;;0.60;0.60;;;;;;;36.50;39.75;100800.06;5005150;28;20089;-69
2022/08/03 10:20:40;;;;;;;1.13;0.65;;;;;;;36.60;39.17;100794.81;5015362;22;20041;-65
2022/08/03 10:23:07;;;;;;;0.85;0.60;;;;;;;36.73;39.62;100792.84;5016339;28;20069;-66
2022/08/03 10:25:36;;;;;;;1.20;0.70;;;;;;;36.80;39.41;100792.22;5009963;28;20022;-66
2022/08/03 10:28:03;;;;;;;2.38;0.55;;;;;;;36.77;39.58;100793.28;5001560;28;20026;-66
2022/08/03 10:30:31;;;;;;;0.80;0.50;;;;;;;36.85;38.86;100782.97;5007852;28;20095;-66
2022/08/03 10:33:03;;;;;;;0.43;0.30;;;;;;;36.87;39.38;100791.63;5002238;28;20029;-66
2022/08/03 10:35:29;;;;;;;0.65;0.60;;;;;;;37.06;38.60;100778.28;4996419;28;20037;-66
2022/08/03 10:37:59;;;;;;;1.23;0.40;;;;;;;37.27;38.45;100781.25;4996163;28;20037;-66
2022/08/03 10:40:30;;;;;;;0.63;0.50;;;;;;;37.08;38.51;100780.56;4998721;28;20471;-66
2022/08/03 10:43:02;;;;;;;1.52;0.40;;;;;;;37.35;38.56;100781.41;4999543;28;20064;-66
2022/08/03 10:45:32;;;;;;;0.75;0.60;;;;;;;37.31;39.12;100780.97;5006154;28;20032;-66
2022/08/03 10:47:59;;;;;;;0.50;0.50;;;;;;;37.38;38.36;100774.72;5006890;28;20042;-65
2022/08/03 10:50:25;;;;;;;0.65;0.50;;;;;;;37.48;38.13;100770.16;5000427;28;20091;-66
2022/08/03 10:53:00;;;;;;;2.58;0.65;;;;;;;37.50;37.79;100776.78;4997495;28;20030;-66
2022/08/03 10:58:45;;;;;;;0.40;0.40;;;;;;;37.72;37.93;100769.97;5000293;28;20088;-65
2022/08/03 11:01:11;;;;;;;1.25;0.50;;;;;;;37.75;38.11;100777.31;4995690;28;20038;-67
2022/08/03 11:03:57;;;;;;;6.03;0.70;;;;;;;37.86;37.73;100786.31;5003923;28;20081;-67
2022/08/03 11:06:24;;;;;;;0.60;0.60;;;;;;;37.97;37.59;100776.91;4991934;28;20045;-67
2022/08/03 11:09:08;;;;;;;1.27;0.55;;;;;;;38.01;37.40;100782.22;4999439;28;20097;-67
2022/08/03 11:11:35;;;;;;;0.43;0.40;;;;;;;38.08;36.90;100782.31;5001522;28;20040;-66
2022/08/03 11:14:14;;;;;;;0.65;0.45;;;;;;;38.27;36.36;100771.69;5002844;28;20221;-66
2022/08/03 11:16:44;;;;;;;1.85;0.63;;;;;;;37.82;37.19;100783.09;5004641;28;20065;-67
2022/08/03 11:19:11;;;;;;;;;;;;;;;38.04;36.59;100779.06;5002040;28;20057;-67
2022/08/03 11:21:49;;;;;;;0.85;0.40;;;;;;;38.06;36.90;100773.63;4999905;28;19960;-66
2022/08/03 11:24:50;;;;;;;1.48;0.60;;;;;;;38.11;37.39;100769.97;5002643;28;20018;-67
2022/08/03 11:27:17;;;;;;;1.05;0.93;;;;;;;38.19;37.75;100770.81;4964843;28;20057;-67
2022/08/03 11:30:08;;;;;;;0.50;0.40;;;;;;;38.34;37.32;100770.25;5003536;28;20591;-67
2022/08/03 11:32:36;;;;;;;;;;;;;;;38.32;37.24;100773.63;5000399;28;20026;-67
2022/08/03 11:35:20;;;;;;;0.52;0.45;;;;;;;38.33;38.15;100765.94;5005932;28;19919;-67
2022/08/03 11:37:55;;;;;;;1.92;0.60;;;;;;;38.56;37.25;100764.13;5006055;28;20113;-67
2022/08/03 11:40:41;;;;;;;0.85;0.47;;;;;;;38.67;36.76;100763.91;5002318;28;20051;-66
2022/08/03 11:43:10;;;;;;;1.40;0.60;;;;;;;38.70;36.78;100768.44;5000471;28;20123;-66